Friendly Valley, California
Current Conditions -  °F | °C
As of 12:51 PM on Sunday 21 Dec 2014 (Local Time) from KVNY Reporting Station
Clear Clear  
Wind Chill: 73°   Ceiling: Unl
Heat Index: 73°   Visibility: 10mi
Dew Point: 48°   Wind: 24mph
Humidity: 41%   Direction: 350°N
Pressure: 30.04"   Gusts: 35mph
Location:  34.3744°N, 118.476°W
Report Text: KVNY 212051Z 35021G30KT 10SM CLR 23/09 A3004 RMK AO2 PK WND 35030/1954 SLP166 T02280089 58038
Loading
Personal Weather Stations






























Interactive Weather Map New forecast layout! Learn more

10-Day Weather Forecast

Advertisements
Track Severe Weather on mobile